createdAt,value
2022-12-09T00:01:04.104Z,15.50
2022-12-09T00:03:36.066Z,17.47
2022-12-09T00:06:13.737Z,16.30
2022-12-09T00:08:49.901Z,18.37
2022-12-09T00:11:23.242Z,17.50
2022-12-09T00:14:10.149Z,18.57
2022-12-09T00:16:49.204Z,18.40
2022-12-09T00:19:16.376Z,19.37
2022-12-09T00:21:43.408Z,19.73
2022-12-09T00:24:28.123Z,19.40
2022-12-09T00:27:26.786Z,20.57
2022-12-09T00:30:11.564Z,19.60
2022-12-09T00:32:39.062Z,19.27
2022-12-09T00:35:18.564Z,18.90
2022-12-09T00:37:57.647Z,19.87
2022-12-09T00:40:31.388Z,20.53
2022-12-09T00:43:08.910Z,20.50
2022-12-09T00:46:12.901Z,20.23
2022-12-09T00:51:37.753Z,18.60
2022-12-09T00:54:44.911Z,18.07
2022-12-09T00:57:49.262Z,17.63
2022-12-09T01:00:37.274Z,19.00
2022-12-09T01:03:22.887Z,19.43
2022-12-09T01:09:35.556Z,18.80
2022-12-09T01:12:08.868Z,17.63
2022-12-09T01:17:38.826Z,17.43
2022-12-09T01:20:11.891Z,17.13
2022-12-09T01:23:05.847Z,18.90
2022-12-09T01:31:59.718Z,18.30
2022-12-09T01:34:40.963Z,18.80
2022-12-09T01:37:10.769Z,17.97
2022-12-09T01:39:44.475Z,20.67
2022-12-09T01:42:31.353Z,21.40
2022-12-09T01:48:34.589Z,17.87
2022-12-09T01:51:26.764Z,20.30
2022-12-09T01:56:48.365Z,19.00
2022-12-09T01:59:22.340Z,21.80
2022-12-09T02:02:03.767Z,19.73
2022-12-09T02:05:04.175Z,21.27
2022-12-09T02:07:34.432Z,17.97
2022-12-09T02:10:34.672Z,19.27
2022-12-09T02:13:40.295Z,17.73
2022-12-09T02:16:28.499Z,17.60
2022-12-09T02:19:23.304Z,18.50
2022-12-09T02:22:31.249Z,17.70
2022-12-09T02:29:50.055Z,18.67
2022-12-09T02:36:12.960Z,18.23
2022-12-09T02:39:10.572Z,17.87
2022-12-09T02:42:08.946Z,17.83
2022-12-09T02:45:09.463Z,17.70
2022-12-09T02:48:20.187Z,16.97
2022-12-09T02:52:55.897Z,17.90
2022-12-09T02:55:05.763Z,18.20
2022-12-09T02:58:02.989Z,19.30
2022-12-09T03:04:00.075Z,18.63
2022-12-09T03:15:26.476Z,18.33
2022-12-09T03:26:09.430Z,17.67
2022-12-09T03:38:51.046Z,17.20
2022-12-09T03:41:55.648Z,17.43
2022-12-09T03:44:43.201Z,18.83
2022-12-09T03:50:16.505Z,17.87
2022-12-09T03:53:08.924Z,19.30
2022-12-09T03:56:40.635Z,18.70
2022-12-09T04:00:05.297Z,18.20
2022-12-09T04:08:26.674Z,18.47
2022-12-09T04:11:19.543Z,17.40
2022-12-09T04:16:40.502Z,16.77
2022-12-09T04:19:21.896Z,15.60
2022-12-09T04:21:48.870Z,16.50
2022-12-09T04:24:15.790Z,17.80
2022-12-09T04:26:50.808Z,17.33
2022-12-09T04:29:17.769Z,16.90
2022-12-09T04:31:47.329Z,16.37
2022-12-09T04:34:14.112Z,16.40
2022-12-09T04:36:40.934Z,14.77
2022-12-09T04:39:33.323Z,15.90
2022-12-09T04:42:09.364Z,16.33
2022-12-09T04:44:41.902Z,16.90
2022-12-09T04:47:11.448Z,17.17
2022-12-09T04:50:09.773Z,15.20
2022-12-09T04:52:37.936Z,16.13
2022-12-09T04:55:05.203Z,16.00
2022-12-09T04:57:35.328Z,17.13
2022-12-09T05:00:04.679Z,16.67
2022-12-09T05:02:31.462Z,16.60
2022-12-09T05:05:03.177Z,16.57
2022-12-09T05:07:33.652Z,15.30
2022-12-09T05:10:01.456Z,16.37
2022-12-09T05:12:28.586Z,15.20
2022-12-09T05:14:56.291Z,15.00
2022-12-09T05:17:27.541Z,15.23
2022-12-09T05:19:57.461Z,15.07
2022-12-09T05:22:27.240Z,16.13
2022-12-09T05:24:58.981Z,14.67
2022-12-09T05:28:10.703Z,15.07
2022-12-09T05:31:29.094Z,16.33
2022-12-09T05:34:08.504Z,13.90
2022-12-09T05:40:23.548Z,15.57
2022-12-09T05:43:01.184Z,14.97
2022-12-09T05:49:47.705Z,16.30
2022-12-09T05:52:35.159Z,15.77
2022-12-09T05:55:15.198Z,15.57
2022-12-09T05:57:54.401Z,16.77
2022-12-09T06:01:02.499Z,16.17
2022-12-09T06:03:38.823Z,15.50
2022-12-09T06:07:38.571Z,16.57
2022-12-09T06:10:08.853Z,14.90
2022-12-09T06:12:36.377Z,16.30
2022-12-09T06:15:03.522Z,15.93
2022-12-09T06:18:03.956Z,15.40
2022-12-09T06:20:38.694Z,15.93
2022-12-09T06:23:29.338Z,16.87
2022-12-09T06:26:09.419Z,16.07
2022-12-09T06:29:01.254Z,15.20
2022-12-09T06:31:29.074Z,15.80
2022-12-09T06:33:58.108Z,16.47
2022-12-09T06:36:27.909Z,16.20
2022-12-09T06:38:55.485Z,15.40
2022-12-09T06:41:22.563Z,14.07
2022-12-09T06:43:49.486Z,14.80
2022-12-09T06:46:19.500Z,16.63
2022-12-09T06:48:47.016Z,16.07
2022-12-09T06:51:14.327Z,16.97
2022-12-09T06:53:41.466Z,17.13
2022-12-09T06:56:12.116Z,16.53
2022-12-09T06:58:41.212Z,16.20
2022-12-09T07:01:13.829Z,16.20
2022-12-09T07:03:45.676Z,17.00
2022-12-09T07:06:38.315Z,17.00
2022-12-09T07:09:08.256Z,17.63
2022-12-09T07:11:35.842Z,17.43
2022-12-09T07:14:02.976Z,17.03
2022-12-09T07:16:30.440Z,17.10
2022-12-09T07:18:57.385Z,16.80
2022-12-09T07:21:24.808Z,16.60
2022-12-09T07:23:51.907Z,16.57
2022-12-09T07:26:19.331Z,17.20
2022-12-09T07:28:50.465Z,17.40
2022-12-09T07:31:25.390Z,17.17
2022-12-09T07:33:53.526Z,17.37
2022-12-09T07:36:22.301Z,16.13
2022-12-09T07:38:57.272Z,19.17
2022-12-09T07:41:24.593Z,18.00
2022-12-09T07:43:52.276Z,17.37
2022-12-09T07:46:20.783Z,17.60
2022-12-09T07:48:48.568Z,18.57
2022-12-09T07:51:16.385Z,18.07
2022-12-09T07:53:43.181Z,18.07
2022-12-09T07:56:12.537Z,19.10
2022-12-09T07:58:39.682Z,19.70
2022-12-09T08:01:07.632Z,20.37
2022-12-09T08:03:35.353Z,18.70
2022-12-09T08:06:02.751Z,18.40
2022-12-09T08:08:30.122Z,17.73
2022-12-09T08:10:57.232Z,19.17
2022-12-09T08:13:24.288Z,18.67
2022-12-09T08:15:51.138Z,18.17
2022-12-09T08:18:18.062Z,19.90
2022-12-09T08:20:45.422Z,18.40
2022-12-09T08:23:12.335Z,18.60
2022-12-09T08:25:39.423Z,17.23
2022-12-09T08:28:06.341Z,17.43
2022-12-09T08:30:33.354Z,16.40
2022-12-09T08:33:00.204Z,16.27
2022-12-09T08:35:29.966Z,16.53
2022-12-09T08:37:57.073Z,16.40
2022-12-09T08:40:24.561Z,15.20
2022-12-09T08:42:51.408Z,15.30
2022-12-09T08:45:18.134Z,14.30
2022-12-09T08:47:45.222Z,14.80
2022-12-09T08:50:12.746Z,15.23
2022-12-09T08:52:40.930Z,15.23
2022-12-09T08:55:09.450Z,14.37
2022-12-09T08:57:36.110Z,15.97
2022-12-09T09:00:04.073Z,14.57
2022-12-09T09:02:31.632Z,16.13
2022-12-09T09:05:00.067Z,15.80
2022-12-09T09:07:27.111Z,16.43
2022-12-09T09:09:54.108Z,15.07
2022-12-09T09:12:20.882Z,15.13
2022-12-09T09:14:47.698Z,15.90
2022-12-09T09:17:15.259Z,14.30
2022-12-09T09:19:42.471Z,16.30
2022-12-09T09:22:09.377Z,15.60
2022-12-09T09:24:36.447Z,16.90
2022-12-09T09:27:03.454Z,17.13
2022-12-09T09:29:30.734Z,16.20
2022-12-09T09:31:57.674Z,18.13
2022-12-09T09:34:26.418Z,18.17
2022-12-09T09:36:54.842Z,17.27
2022-12-09T09:39:22.278Z,16.97
2022-12-09T09:42:07.819Z,16.53
2022-12-09T09:44:42.041Z,16.03
2022-12-09T09:47:32.789Z,16.33
2022-12-09T09:50:34.415Z,16.67
2022-12-09T09:53:10.932Z,16.90
2022-12-09T09:55:51.066Z,15.87
2022-12-09T09:58:36.906Z,16.00
2022-12-09T10:01:08.049Z,14.40
2022-12-09T10:03:36.377Z,12.90
2022-12-09T10:06:12.672Z,11.87
2022-12-09T10:08:56.153Z,10.80
2022-12-09T10:11:35.411Z,11.90
2022-12-09T10:14:09.063Z,14.03
2022-12-09T10:16:45.132Z,11.70
2022-12-09T10:19:19.638Z,12.03
2022-12-09T10:21:48.856Z,11.60
2022-12-09T10:24:49.383Z,11.97
2022-12-09T10:27:25.698Z,13.40
2022-12-09T10:30:10.292Z,13.87
2022-12-09T10:32:38.468Z,12.23
2022-12-09T10:35:27.121Z,11.93
2022-12-09T10:37:56.420Z,12.17
2022-12-09T10:40:25.568Z,11.60
2022-12-09T10:43:13.750Z,13.30
2022-12-09T10:48:48.950Z,12.27
2022-12-09T10:51:22.692Z,14.20
2022-12-09T10:54:05.072Z,11.37
2022-12-09T10:56:34.278Z,15.13
2022-12-09T10:59:13.661Z,14.30
2022-12-09T11:02:02.063Z,14.70
2022-12-09T11:04:35.151Z,15.27
2022-12-09T11:07:15.722Z,14.43
2022-12-09T11:10:03.008Z,16.63
2022-12-09T11:12:38.504Z,14.10
2022-12-09T11:15:26.382Z,12.70
2022-12-09T11:18:03.588Z,14.90
2022-12-09T11:20:32.605Z,13.77
2022-12-09T11:23:08.316Z,13.40
2022-12-09T11:25:36.924Z,13.20
2022-12-09T11:28:16.547Z,12.40
2022-12-09T11:31:19.933Z,13.77
2022-12-09T11:33:41.850Z,12.20
2022-12-09T11:36:23.191Z,12.47
2022-12-09T11:38:51.754Z,12.60
2022-12-09T11:41:40.999Z,11.87
2022-12-09T11:44:34.263Z,12.40
2022-12-09T11:47:04.567Z,12.30
2022-12-09T11:49:34.920Z,12.67
2022-12-09T11:52:16.785Z,10.10
2022-12-09T11:55:06.614Z,11.40
2022-12-09T11:57:35.312Z,11.63
2022-12-09T12:00:07.625Z,12.27
2022-12-09T12:02:38.978Z,11.43
2022-12-09T12:05:21.675Z,12.80
2022-12-09T12:08:14.461Z,12.00
2022-12-09T12:10:43.812Z,11.97
2022-12-09T12:13:20.587Z,17.97
2022-12-09T12:15:47.105Z,13.77
2022-12-09T12:18:19.467Z,13.40
2022-12-09T12:21:02.601Z,13.80
2022-12-09T12:23:42.229Z,14.20
2022-12-09T12:26:11.867Z,13.83
2022-12-09T12:29:00.063Z,14.00
2022-12-09T12:31:45.688Z,14.30
2022-12-09T12:34:25.091Z,12.57
2022-12-09T12:37:20.161Z,12.77
2022-12-09T12:39:59.390Z,14.50
2022-12-09T12:43:34.217Z,14.30
2022-12-09T12:46:18.118Z,13.57
2022-12-09T12:49:12.353Z,13.47
2022-12-09T12:52:47.509Z,14.57
2022-12-09T12:55:17.476Z,14.53
2022-12-09T12:58:20.083Z,13.47
2022-12-09T13:01:00.739Z,14.00
2022-12-09T13:03:42.785Z,13.67
2022-12-09T13:06:12.416Z,14.07
2022-12-09T13:09:03.435Z,14.67
2022-12-09T13:11:54.904Z,13.63
2022-12-09T13:14:44.383Z,15.70
2022-12-09T13:17:14.328Z,14.40
2022-12-09T13:19:44.024Z,13.67
2022-12-09T13:22:35.656Z,13.27
2022-12-09T13:25:27.259Z,11.90
2022-12-09T13:28:06.653Z,11.57
2022-12-09T13:30:43.918Z,13.47
2022-12-09T13:33:18.660Z,11.83
2022-12-09T13:36:20.811Z,12.80
2022-12-09T13:38:47.495Z,11.90
2022-12-09T13:41:26.255Z,12.07
2022-12-09T13:44:12.827Z,12.10
2022-12-09T13:46:39.875Z,12.80
2022-12-09T13:49:14.565Z,12.00
2022-12-09T13:51:48.201Z,12.67
2022-12-09T13:54:16.718Z,12.93
2022-12-09T13:56:44.535Z,13.83
2022-12-09T13:59:39.326Z,12.43
2022-12-09T14:02:12.044Z,12.53
2022-12-09T14:04:57.092Z,13.63
2022-12-09T14:07:34.785Z,12.80
2022-12-09T14:10:02.251Z,14.20
2022-12-09T14:12:30.749Z,13.40
2022-12-09T14:15:01.445Z,13.80
2022-12-09T14:17:30.731Z,13.20
2022-12-09T14:20:11.715Z,13.33
2022-12-09T14:22:44.622Z,12.87
2022-12-09T14:25:26.745Z,14.37
2022-12-09T14:28:11.684Z,13.10
2022-12-09T14:30:50.416Z,13.60
2022-12-09T14:33:36.734Z,14.57
2022-12-09T14:36:24.190Z,15.00
2022-12-09T14:39:23.234Z,14.27
2022-12-09T14:42:00.087Z,14.57
2022-12-09T14:44:32.996Z,14.20
2022-12-09T14:47:31.037Z,13.47
2022-12-09T14:50:07.293Z,13.30
2022-12-09T14:52:34.464Z,13.77
2022-12-09T14:55:09.078Z,14.47
2022-12-09T14:57:41.520Z,13.47
2022-12-09T15:00:25.022Z,14.10
2022-12-09T15:03:23.446Z,13.60
2022-12-09T15:05:39.626Z,13.70
2022-12-09T15:08:06.346Z,13.00
2022-12-09T15:10:34.349Z,13.23
2022-12-09T15:13:02.077Z,13.60
2022-12-09T15:15:34.116Z,13.73
2022-12-09T15:18:07.855Z,12.87
2022-12-09T15:20:39.838Z,13.00
2022-12-09T15:23:07.504Z,13.20
2022-12-09T15:25:42.421Z,12.17
2022-12-09T15:28:20.250Z,11.83
2022-12-09T15:30:57.264Z,11.90
2022-12-09T15:33:24.616Z,11.37
2022-12-09T15:35:51.171Z,11.53
2022-12-09T15:38:18.112Z,11.17
2022-12-09T15:41:05.476Z,11.77
2022-12-09T15:43:34.816Z,11.37
2022-12-09T15:46:02.945Z,11.00
2022-12-09T15:48:34.244Z,11.00
2022-12-09T15:51:06.158Z,12.40
2022-12-09T15:53:42.815Z,11.23
2022-12-09T15:56:16.206Z,11.70
2022-12-09T15:58:46.261Z,11.93
2022-12-09T16:01:19.958Z,13.00
2022-12-09T16:03:52.539Z,14.33
2022-12-09T16:06:26.896Z,15.40
2022-12-09T16:08:53.702Z,13.97
2022-12-09T16:11:43.096Z,15.77
2022-12-09T16:14:10.613Z,14.00
2022-12-09T16:16:48.074Z,14.90
2022-12-09T16:19:25.387Z,13.03
2022-12-09T16:21:54.253Z,14.50
2022-12-09T16:24:21.420Z,13.83
2022-12-09T16:26:49.891Z,12.97
2022-12-09T16:29:21.407Z,14.07
2022-12-09T16:32:11.175Z,14.40
2022-12-09T16:34:37.997Z,12.27
2022-12-09T16:37:24.452Z,13.00
2022-12-09T16:39:51.111Z,13.50
2022-12-09T16:42:22.215Z,13.50
2022-12-09T16:44:49.050Z,14.47
2022-12-09T16:47:18.151Z,13.63
2022-12-09T16:49:47.132Z,14.00
2022-12-09T16:52:23.203Z,13.90
2022-12-09T16:54:50.621Z,14.17
2022-12-09T16:57:18.771Z,14.77
2022-12-09T16:59:46.367Z,14.60
2022-12-09T17:02:17.897Z,13.10
2022-12-09T17:04:44.622Z,12.60
2022-12-09T17:07:11.259Z,12.63
2022-12-09T17:09:37.881Z,14.87
2022-12-09T17:12:04.759Z,14.57
2022-12-09T17:14:32.134Z,13.77
2022-12-09T17:16:58.798Z,13.80
2022-12-09T17:19:25.418Z,13.97
2022-12-09T17:21:52.442Z,13.73
2022-12-09T17:24:20.781Z,14.40
2022-12-09T17:26:47.411Z,14.17
2022-12-09T17:29:16.463Z,14.50
2022-12-09T17:31:43.111Z,14.00
2022-12-09T17:34:09.771Z,14.73
2022-12-09T17:36:36.410Z,13.57
2022-12-09T17:39:03.813Z,15.07
2022-12-09T17:41:42.557Z,13.00
2022-12-09T17:44:55.805Z,13.53
2022-12-09T17:47:22.643Z,13.27
2022-12-09T17:49:49.262Z,13.33
2022-12-09T17:52:15.909Z,13.53
2022-12-09T17:54:42.634Z,14.70
2022-12-09T17:57:09.278Z,18.57
2022-12-09T17:59:35.932Z,23.00
2022-12-09T18:02:04.930Z,29.90
2022-12-09T18:04:32.391Z,26.20
2022-12-09T18:06:58.984Z,22.43
2022-12-09T18:09:25.637Z,24.57
2022-12-09T18:11:52.203Z,23.67
2022-12-09T18:14:20.590Z,22.57
2022-12-09T18:16:49.125Z,22.87
2022-12-09T18:19:18.128Z,22.53
2022-12-09T18:21:45.335Z,20.60
2022-12-09T18:24:12.122Z,21.20
2022-12-09T18:26:42.538Z,17.77
2022-12-09T18:29:10.717Z,17.13
2022-12-09T18:31:40.590Z,17.27
2022-12-09T18:34:17.071Z,18.77
2022-12-09T18:36:43.692Z,17.67
2022-12-09T18:39:10.384Z,17.53
2022-12-09T18:41:39.317Z,16.40
2022-12-09T18:44:08.897Z,18.90
2022-12-09T18:46:37.386Z,19.73
2022-12-09T18:49:11.378Z,19.30
2022-12-09T18:51:39.756Z,18.10
2022-12-09T18:54:07.350Z,19.73
2022-12-09T18:56:34.805Z,19.40
2022-12-09T18:59:09.673Z,20.30
2022-12-09T19:01:47.007Z,20.13
2022-12-09T19:04:17.510Z,20.57
2022-12-09T19:06:45.701Z,19.57
2022-12-09T19:09:15.209Z,16.17
2022-12-09T19:11:43.771Z,17.17
2022-12-09T19:14:10.836Z,17.07
2022-12-09T19:16:37.675Z,15.93
2022-12-09T19:19:09.666Z,15.73
2022-12-09T19:21:37.497Z,16.20
2022-12-09T19:24:04.326Z,14.57
2022-12-09T19:26:32.671Z,15.60
2022-12-09T19:29:05.276Z,15.43
2022-12-09T19:31:36.324Z,15.70
2022-12-09T19:34:13.679Z,16.20
2022-12-09T19:36:40.777Z,15.60
2022-12-09T19:39:08.454Z,15.80
2022-12-09T19:41:36.202Z,16.57
2022-12-09T19:44:04.789Z,17.50
2022-12-09T19:46:31.517Z,17.50
2022-12-09T19:48:58.506Z,20.50
2022-12-09T19:51:26.373Z,19.63
2022-12-09T19:53:58.301Z,20.27
2022-12-09T19:56:25.028Z,20.27
2022-12-09T19:58:52.461Z,20.00
2022-12-09T20:01:30.501Z,21.57
2022-12-09T20:04:19.155Z,20.27
2022-12-09T20:06:50.906Z,20.50
2022-12-09T20:09:24.020Z,20.47
2022-12-09T20:11:51.551Z,22.00
2022-12-09T20:14:18.912Z,22.90
2022-12-09T20:16:45.512Z,21.90
2022-12-09T20:19:12.245Z,22.17
2022-12-09T20:21:40.475Z,21.40
2022-12-09T20:24:08.472Z,21.70
2022-12-09T20:26:36.183Z,20.93
2022-12-09T20:29:06.027Z,22.00
2022-12-09T20:31:35.139Z,21.37
2022-12-09T20:34:08.394Z,22.80
2022-12-09T20:36:36.149Z,24.87
2022-12-09T20:39:06.512Z,23.40
2022-12-09T20:41:33.186Z,23.20
2022-12-09T20:44:00.380Z,22.70
2022-12-09T20:46:30.246Z,22.70
2022-12-09T20:48:57.853Z,22.47
2022-12-09T20:51:26.288Z,22.20
2022-12-09T20:53:53.694Z,23.37
2022-12-09T20:56:21.611Z,22.50
2022-12-09T20:58:49.439Z,23.10
2022-12-09T21:01:19.514Z,24.43
2022-12-09T21:03:47.876Z,24.60
2022-12-09T21:06:16.522Z,25.47
2022-12-09T21:08:44.014Z,24.20
2022-12-09T21:11:16.398Z,26.33
2022-12-09T21:13:45.107Z,25.70
2022-12-09T21:16:15.983Z,28.03
2022-12-09T21:18:43.649Z,27.67
2022-12-09T21:21:10.407Z,29.80
2022-12-09T21:23:37.962Z,31.27
2022-12-09T21:26:13.141Z,39.90
2022-12-09T21:28:40.354Z,35.67
2022-12-09T21:31:13.508Z,36.60
2022-12-09T21:33:41.661Z,34.07
2022-12-09T21:36:14.082Z,35.40
2022-12-09T21:38:40.729Z,35.47
2022-12-09T21:41:09.969Z,36.77
2022-12-09T21:43:37.191Z,39.23
2022-12-09T21:46:09.729Z,39.00
2022-12-09T21:48:36.490Z,37.77
2022-12-09T21:51:03.206Z,40.60
2022-12-09T21:53:30.527Z,32.20
2022-12-09T21:56:28.117Z,36.40
2022-12-09T21:58:56.268Z,38.87
2022-12-09T22:01:26.712Z,48.03
2022-12-09T22:03:54.752Z,39.27
2022-12-09T22:06:21.537Z,35.43
2022-12-09T22:08:48.141Z,34.20
2022-12-09T22:11:22.146Z,36.20
2022-12-09T22:13:49.127Z,34.07
2022-12-09T22:16:18.703Z,34.67
2022-12-09T22:18:45.704Z,35.93
2022-12-09T22:21:24.857Z,38.37
2022-12-09T22:23:54.425Z,38.67
2022-12-09T22:26:21.543Z,37.93
2022-12-09T22:28:48.548Z,32.43
2022-12-09T22:31:21.498Z,31.43
2022-12-09T22:33:49.446Z,33.77
2022-12-09T22:36:16.692Z,35.23
2022-12-09T22:38:43.967Z,33.50
2022-12-09T22:41:29.971Z,30.90
2022-12-09T22:43:56.830Z,29.87
2022-12-09T22:46:29.371Z,26.40
2022-12-09T22:48:57.664Z,29.17
2022-12-09T22:51:26.600Z,29.60
2022-12-09T22:53:55.064Z,28.20
2022-12-09T22:56:22.147Z,21.27
2022-12-09T22:58:48.835Z,27.47
2022-12-09T23:01:24.546Z,26.20
2022-12-09T23:03:51.426Z,25.50
2022-12-09T23:06:18.189Z,27.67
2022-12-09T23:08:45.399Z,23.17
2022-12-09T23:11:14.579Z,24.50
2022-12-09T23:13:41.632Z,25.23
2022-12-09T23:16:11.793Z,24.40
2022-12-09T23:18:38.612Z,21.67
2022-12-09T23:21:17.197Z,22.73
2022-12-09T23:23:43.976Z,22.93
2022-12-09T23:26:13.577Z,23.77
2022-12-09T23:28:43.071Z,23.33
2022-12-09T23:31:11.984Z,22.87
2022-12-09T23:33:39.918Z,23.10
2022-12-09T23:36:11.452Z,23.40
2022-12-09T23:38:38.089Z,23.00
2022-12-09T23:41:05.457Z,23.93
2022-12-09T23:43:33.601Z,23.10
2022-12-09T23:46:15.414Z,23.10
2022-12-09T23:48:45.975Z,22.10
2022-12-09T23:51:18.013Z,21.57
2022-12-09T23:53:46.401Z,23.20
2022-12-09T23:56:14.804Z,22.90
2022-12-09T23:58:42.430Z,22.30
